Time;durP1;ratioP1;P1;durP2;ratioP2;P2;SDS_P1;SDS_P2;PMS_P1;PMS_P2;Temp;Humidity;BMP_temperature;BMP_pressure;BME280_temperature;BME280_humidity;BME280_pressure;Samples;Min_cycle;Max_cycle;Signal;HPM_P1;HPM_P2
2023/03/10 00:02:21;;;;;;;1.80;1.60;;;10.90;94.50;;;;;;5078718;28;20199;-82
2023/03/10 00:04:51;;;;;;;2.83;1.47;;;10.90;94.80;;;;;;5077980;28;20179;-86
2023/03/10 00:07:16;;;;;;;1.43;1.33;;;11.00;94.20;;;;;;5081995;28;20183;-82
2023/03/10 00:09:43;;;;;;;1.60;1.50;;;10.90;96.10;;;;;;5095045;28;20195;-87
2023/03/10 00:12:09;;;;;;;1.80;1.70;;;10.90;96.80;;;;;;5091494;28;20199;-80
2023/03/10 00:14:35;;;;;;;1.37;1.30;;;10.90;98.50;;;;;;5091827;28;20666;-85
2023/03/10 00:17:00;;;;;;;2.37;1.57;;;10.90;97.50;;;;;;5079008;28;20187;-87
2023/03/10 00:19:26;;;;;;;1.50;1.40;;;10.80;99.90;;;;;;5079547;28;20180;-87
2023/03/10 00:21:52;;;;;;;2.40;1.57;;;10.70;99.90;;;;;;5059724;28;20661;-88
2023/03/10 00:24:18;;;;;;;1.70;1.60;;;10.60;99.90;;;;;;5078305;28;20210;-90
2023/03/10 00:26:47;;;;;;;1.53;1.43;;;10.60;99.90;;;;;;5077783;28;20289;-80
2023/03/10 00:29:12;;;;;;;2.90;1.60;;;10.50;99.90;;;;;;5077962;28;20180;-88
2023/03/10 00:31:38;;;;;;;1.70;1.60;;;10.50;99.90;;;;;;5078769;28;20578;-82
2023/03/10 00:34:05;;;;;;;2.93;1.73;;;10.50;99.90;;;;;;5079175;28;20214;-87
2023/03/10 00:36:31;;;;;;;2.30;1.70;;;10.30;99.90;;;;;;5059997;28;20600;-87
2023/03/10 00:39:03;;;;;;;2.00;1.47;;;10.30;99.90;;;;;;5078870;28;20176;-81
2023/03/10 00:41:32;;;;;;;2.23;1.60;;;10.20;99.90;;;;;;5060263;28;20202;-87
2023/03/10 00:43:58;;;;;;;2.70;1.50;;;10.20;99.90;;;;;;5079542;28;20186;-86
2023/03/10 00:46:25;;;;;;;2.50;1.60;;;10.20;99.90;;;;;;5078202;28;20186;-82
2023/03/10 00:48:51;;;;;;;1.70;1.60;;;10.20;99.90;;;;;;5078370;28;20719;-82
2023/03/10 00:51:19;;;;;;;1.77;1.67;;;10.20;99.90;;;;;;5077959;28;20572;-83
2023/03/10 00:53:44;;;;;;;2.00;1.70;;;10.10;99.90;;;;;;5078416;28;20221;-86
2023/03/10 00:56:19;;;;;;;2.23;1.63;;;10.10;99.90;;;;;;5077697;28;20176;-82
2023/03/10 00:58:46;;;;;;;1.73;1.60;;;10.10;99.90;;;;;;5078818;28;20597;-89
2023/03/10 01:01:15;;;;;;;3.40;1.60;;;9.90;99.90;;;;;;5081046;28;20195;-86
2023/03/10 01:03:41;;;;;;;2.97;1.60;;;9.90;99.90;;;;;;5079305;28;20271;-85
2023/03/10 01:06:06;;;;;;;2.63;1.63;;;9.90;99.90;;;;;;5079631;28;20749;-85
2023/03/10 01:08:32;;;;;;;3.03;1.60;;;9.80;99.90;;;;;;5083029;28;20606;-84
2023/03/10 01:10:57;;;;;;;1.60;1.50;;;9.80;99.90;;;;;;5081058;28;20227;-85
2023/03/10 01:13:23;;;;;;;1.90;1.80;;;9.80;99.90;;;;;;5079807;28;20179;-82
2023/03/10 01:15:49;;;;;;;2.60;2.00;;;9.80;99.90;;;;;;5078895;28;20180;-86
2023/03/10 01:18:17;;;;;;;1.60;1.50;;;9.80;99.90;;;;;;5080691;28;20630;-81
2023/03/10 01:20:43;;;;;;;3.30;1.80;;;9.80;99.90;;;;;;5079608;28;20296;-88
2023/03/10 01:23:20;;;;;;;2.60;1.53;;;9.80;99.90;;;;;;5080628;28;20642;-82
2023/03/10 01:25:46;;;;;;;2.13;1.90;;;9.70;99.90;;;;;;5081723;28;20189;-82
2023/03/10 01:28:12;;;;;;;3.07;2.03;;;9.80;99.90;;;;;;5082614;28;20417;-81
2023/03/10 01:30:39;;;;;;;1.80;1.70;;;9.80;99.90;;;;;;5084313;28;20268;-82
2023/03/10 01:33:05;;;;;;;2.83;2.00;;;9.70;99.90;;;;;;5062760;28;20191;-87
2023/03/10 01:35:31;;;;;;;3.23;2.00;;;9.70;99.90;;;;;;5060787;28;20288;-80
2023/03/10 01:37:57;;;;;;;3.00;2.10;;;9.80;99.90;;;;;;5077116;28;20176;-82
2023/03/10 01:40:22;;;;;;;2.70;2.10;;;9.90;99.90;;;;;;5080336;28;20215;-79
2023/03/10 01:42:48;;;;;;;3.33;1.90;;;9.70;99.90;;;;;;5079765;28;20172;-87
2023/03/10 01:45:14;;;;;;;3.07;2.00;;;9.80;99.90;;;;;;5078136;28;20714;-83
2023/03/10 01:47:41;;;;;;;2.13;1.60;;;9.90;99.90;;;;;;5081024;28;20224;-88
2023/03/10 01:50:14;;;;;;;3.50;2.37;;;9.80;99.90;;;;;;5087554;28;20196;-80
2023/03/10 01:52:44;;;;;;;2.03;1.83;;;9.80;99.90;;;;;;5087311;28;20175;-81
2023/03/10 01:55:20;;;;;;;4.23;2.10;;;9.80;99.90;;;;;;5083905;28;20692;-80
2023/03/10 01:57:49;;;;;;;2.00;1.90;;;9.80;99.90;;;;;;5084476;28;20186;-88
2023/03/10 02:00:16;;;;;;;4.33;2.10;;;9.80;99.90;;;;;;5083343;28;20207;-80
2023/03/10 02:02:49;;;;;;;3.57;2.30;;;9.90;99.90;;;;;;5083582;28;20194;-82
2023/03/10 02:05:15;;;;;;;1.90;1.70;;;9.90;99.90;;;;;;5083973;28;20168;-82
2023/03/10 02:07:42;;;;;;;2.73;2.03;;;9.90;99.90;;;;;;5080467;28;20199;-86
2023/03/10 02:10:13;;;;;;;1.93;1.80;;;9.80;99.90;;;;;;5082743;28;20215;-81
2023/03/10 02:12:38;;;;;;;3.13;1.70;;;9.80;99.90;;;;;;5082537;28;20159;-87
2023/03/10 02:15:05;;;;;;;4.03;1.90;;;9.90;99.90;;;;;;5063511;28;20203;-82
2023/03/10 02:17:30;;;;;;;2.10;1.90;;;9.90;99.90;;;;;;5081796;28;20193;-86
2023/03/10 02:20:19;;;;;;;2.07;1.87;;;9.90;99.90;;;;;;5080971;28;20245;-85
2023/03/10 02:22:46;;;;;;;2.47;1.80;;;10.00;99.90;;;;;;5081689;28;20191;-80
2023/03/10 02:25:43;;;;;;;2.80;1.53;;;10.00;99.90;;;;;;5082470;28;20179;-88
2023/03/10 02:28:09;;;;;;;2.00;1.80;;;10.00;99.90;;;;;;5077353;28;20191;-82
2023/03/10 02:30:38;;;;;;;2.03;1.70;;;10.00;99.90;;;;;;5080826;28;20196;-82
2023/03/10 02:33:12;;;;;;;1.93;1.70;;;10.00;99.90;;;;;;5079541;28;20191;-86
2023/03/10 02:35:38;;;;;;;2.63;1.87;;;10.00;99.90;;;;;;5082109;28;20208;-81
2023/03/10 02:38:04;;;;;;;1.80;1.70;;;9.90;99.90;;;;;;5082224;28;20186;-87
2023/03/10 02:40:39;;;;;;;1.70;1.60;;;10.00;99.90;;;;;;5082030;28;20195;-81
2023/03/10 02:43:23;;;;;;;2.00;1.60;;;10.10;99.90;;;;;;5081402;28;20171;-86
2023/03/10 02:45:50;;;;;;;1.80;1.70;;;10.10;99.90;;;;;;5063627;28;20218;-82
2023/03/10 02:48:25;;;;;;;3.13;1.80;;;10.10;99.90;;;;;;5081020;28;20175;-87
2023/03/10 02:50:52;;;;;;;2.37;2.00;;;10.10;99.90;;;;;;5081157;28;20237;-84
2023/03/10 02:53:21;;;;;;;1.93;1.73;;;10.10;99.90;;;;;;5064304;28;20176;-85
2023/03/10 02:55:47;;;;;;;2.47;1.60;;;10.10;99.90;;;;;;5082987;28;20176;-84
2023/03/10 02:58:13;;;;;;;1.73;1.63;;;10.30;99.90;;;;;;5081512;28;20186;-82
2023/03/10 03:00:41;;;;;;;1.60;1.50;;;10.30;99.90;;;;;;5082831;28;20696;-87
2023/03/10 03:03:08;;;;;;;2.77;1.70;;;10.30;99.90;;;;;;5082037;28;20186;-81
2023/03/10 03:05:34;;;;;;;3.90;1.83;;;10.30;99.90;;;;;;5080141;28;20747;-85
2023/03/10 03:07:59;;;;;;;2.17;1.93;;;10.20;99.90;;;;;;5080792;28;20673;-88
2023/03/10 03:10:26;;;;;;;2.47;1.70;;;10.30;99.90;;;;;;5084453;28;20199;-88
2023/03/10 03:12:51;;;;;;;1.70;1.60;;;10.30;99.90;;;;;;5093030;28;20557;-81
2023/03/10 03:15:18;;;;;;;1.73;1.63;;;10.40;99.90;;;;;;5091978;28;20229;-86
2023/03/10 03:17:43;;;;;;;1.77;1.63;;;10.50;99.90;;;;;;5090177;28;20201;-86
2023/03/10 03:20:13;;;;;;;2.53;1.70;;;10.50;99.90;;;;;;5081213;28;20223;-82
2023/03/10 03:22:40;;;;;;;3.47;1.80;;;10.40;99.90;;;;;;5060568;28;20750;-85
2023/03/10 03:25:06;;;;;;;1.83;1.70;;;10.40;99.90;;;;;;5061609;28;20371;-86
2023/03/10 03:27:32;;;;;;;1.90;1.80;;;10.40;99.90;;;;;;5062595;28;20234;-81
2023/03/10 03:29:58;;;;;;;1.93;1.80;;;10.30;99.90;;;;;;5063724;28;20211;-85
2023/03/10 03:32:24;;;;;;;2.63;1.90;;;10.40;99.90;;;;;;5062573;28;20214;-80
2023/03/10 03:34:49;;;;;;;1.50;1.40;;;10.30;99.90;;;;;;5058986;28;20219;-81
2023/03/10 03:37:15;;;;;;;1.90;1.80;;;10.30;99.90;;;;;;5059347;28;20264;-87
2023/03/10 03:39:40;;;;;;;1.80;1.60;;;10.20;99.90;;;;;;5058683;28;20651;-89
2023/03/10 03:42:06;;;;;;;2.30;1.70;;;10.20;99.90;;;;;;5058306;28;20198;-80
2023/03/10 03:44:32;;;;;;;3.87;1.80;;;10.20;99.90;;;;;;5058059;28;20207;-81
2023/03/10 03:46:58;;;;;;;2.67;1.80;;;10.10;99.90;;;;;;5057884;28;20180;-86
2023/03/10 03:49:23;;;;;;;1.80;1.70;;;10.10;99.90;;;;;;5058833;28;20203;-86
2023/03/10 03:51:49;;;;;;;2.47;1.70;;;10.10;99.90;;;;;;5059251;28;20192;-83
2023/03/10 03:54:15;;;;;;;1.87;1.70;;;10.20;99.90;;;;;;5069515;28;20195;-81
2023/03/10 03:56:40;;;;;;;2.33;1.73;;;10.30;99.90;;;;;;5077851;28;20720;-82
2023/03/10 03:59:06;;;;;;;1.60;1.50;;;10.30;99.90;;;;;;5079658;28;20172;-82
2023/03/10 04:01:32;;;;;;;1.60;1.50;;;10.30;99.90;;;;;;5078472;28;20717;-82
2023/03/10 04:03:57;;;;;;;3.50;1.70;;;10.30;99.90;;;;;;5079842;28;20224;-84
2023/03/10 04:06:23;;;;;;;2.73;1.70;;;10.40;99.90;;;;;;5077068;28;20183;-83
2023/03/10 04:08:49;;;;;;;1.60;1.50;;;10.40;99.90;;;;;;5078684;28;20305;-79
2023/03/10 04:11:15;;;;;;;1.90;1.70;;;10.30;99.90;;;;;;5076511;28;20948;-81
2023/03/10 04:13:40;;;;;;;2.80;1.63;;;10.40;99.90;;;;;;5077016;28;20218;-80
2023/03/10 04:16:07;;;;;;;2.60;1.70;;;10.30;99.90;;;;;;5078512;28;20191;-81
2023/03/10 04:18:32;;;;;;;3.83;1.80;;;10.30;99.90;;;;;;5079517;28;20244;-84
2023/03/10 04:20:58;;;;;;;2.20;1.70;;;10.20;99.90;;;;;;5082462;28;20695;-81
2023/03/10 04:23:24;;;;;;;2.33;1.90;;;10.30;99.90;;;;;;5084165;28;20172;-81
2023/03/10 04:25:49;;;;;;;3.50;1.77;;;10.40;99.90;;;;;;5084699;28;20243;-81
2023/03/10 04:28:15;;;;;;;1.80;1.63;;;10.30;99.90;;;;;;5084275;28;20249;-82
2023/03/10 04:30:42;;;;;;;3.53;1.70;;;10.20;99.90;;;;;;5083584;28;20232;-85
2023/03/10 04:33:09;;;;;;;1.40;1.40;;;10.10;99.90;;;;;;5082777;28;20205;-85
2023/03/10 04:35:39;;;;;;;2.03;1.60;;;10.10;99.90;;;;;;5085614;28;20229;-85
2023/03/10 04:38:04;;;;;;;4.07;1.70;;;10.10;99.90;;;;;;5095905;28;20192;-83
2023/03/10 04:40:30;;;;;;;3.40;1.80;;;10.00;99.90;;;;;;5097494;28;20238;-85
2023/03/10 04:42:56;;;;;;;1.73;1.60;;;9.90;99.90;;;;;;5091917;28;20579;-81
2023/03/10 04:45:21;;;;;;;3.17;1.80;;;9.90;99.90;;;;;;5066015;28;20197;-78
2023/03/10 04:47:47;;;;;;;2.70;1.80;;;9.90;99.90;;;;;;5084763;28;20179;-82
2023/03/10 04:50:16;;;;;;;1.80;1.60;;;9.90;99.90;;;;;;5083540;28;20271;-85
2023/03/10 04:52:43;;;;;;;2.87;1.90;;;9.90;99.90;;;;;;5082716;28;20341;-82
2023/03/10 04:55:09;;;;;;;2.03;1.83;;;9.80;99.90;;;;;;5082574;28;20292;-82
2023/03/10 04:57:34;;;;;;;2.27;1.73;;;9.80;99.90;;;;;;5082154;28;20206;-82
2023/03/10 05:00:00;;;;;;;4.73;1.87;;;9.80;99.90;;;;;;5086728;28;20195;-81
2023/03/10 05:02:25;;;;;;;1.97;1.77;;;9.80;99.90;;;;;;5086531;28;20176;-84
2023/03/10 05:04:51;;;;;;;2.20;1.70;;;9.80;99.90;;;;;;5080857;28;20179;-82
2023/03/10 05:07:17;;;;;;;2.83;2.00;;;9.90;99.90;;;;;;5081864;28;20233;-83
2023/03/10 05:09:42;;;;;;;2.57;2.00;;;9.90;99.90;;;;;;5080572;28;20261;-83
2023/03/10 05:12:10;;;;;;;2.50;1.67;;;9.90;99.90;;;;;;5082493;28;20716;-83
2023/03/10 05:14:36;;;;;;;5.87;1.97;;;9.90;99.90;;;;;;5082438;28;20266;-82
2023/03/10 05:17:02;;;;;;;2.10;1.80;;;10.00;99.90;;;;;;5082971;28;20179;-82
2023/03/10 05:19:28;;;;;;;2.43;2.23;;;9.90;99.90;;;;;;5082907;28;20299;-80
2023/03/10 05:21:54;;;;;;;2.57;2.10;;;10.00;99.90;;;;;;5082390;28;20641;-83
2023/03/10 05:24:19;;;;;;;3.23;2.03;;;10.00;99.90;;;;;;5082290;28;20175;-82
2023/03/10 05:26:45;;;;;;;2.07;1.73;;;10.00;99.90;;;;;;5081889;28;20210;-83
2023/03/10 05:29:11;;;;;;;5.30;1.90;;;10.10;99.90;;;;;;5080396;28;20242;-83
2023/03/10 05:31:36;;;;;;;3.27;1.80;;;10.20;99.90;;;;;;5081939;28;20195;-85
2023/03/10 05:34:02;;;;;;;2.87;1.90;;;10.20;99.90;;;;;;5082156;28;20200;-86
2023/03/10 05:36:27;;;;;;;4.07;2.27;;;10.30;99.90;;;;;;5080936;28;20228;-82
2023/03/10 05:38:53;;;;;;;4.10;2.23;;;10.20;99.90;;;;;;5080569;28;20184;-81
2023/03/10 05:41:19;;;;;;;2.10;1.90;;;10.30;99.90;;;;;;5081069;28;20191;-82
2023/03/10 05:43:44;;;;;;;2.40;2.00;;;10.40;99.90;;;;;;5081339;28;20195;-81
2023/03/10 05:46:11;;;;;;;5.10;2.10;;;10.40;99.90;;;;;;5081960;28;20180;-82
2023/03/10 05:48:36;;;;;;;3.27;2.13;;;10.40;99.30;;;;;;5082055;28;20202;-84
2023/03/10 05:51:04;;;;;;;2.83;1.77;;;10.40;99.50;;;;;;5085824;28;20203;-81
2023/03/10 05:53:31;;;;;;;4.20;1.90;;;10.50;98.90;;;;;;5086609;28;20184;-85
2023/03/10 05:55:57;;;;;;;2.60;2.13;;;10.50;99.90;;;;;;5080502;28;20179;-82
2023/03/10 05:58:24;;;;;;;4.20;2.20;;;10.50;99.10;;;;;;5081241;28;20184;-83
2023/03/10 06:00:51;;;;;;;4.73;2.00;;;10.40;99.30;;;;;;5081591;28;20223;-84
2023/03/10 06:03:17;;;;;;;2.57;2.00;;;10.40;99.80;;;;;;5080983;28;20185;-82
2023/03/10 06:05:43;;;;;;;3.60;1.77;;;10.40;99.90;;;;;;5079688;28;20622;-83
2023/03/10 06:08:09;;;;;;;2.20;1.63;;;10.40;99.90;;;;;;5062361;28;20180;-83
2023/03/10 06:10:34;;;;;;;2.60;1.73;;;10.30;99.90;;;;;;5082255;28;20273;-81
2023/03/10 06:13:00;;;;;;;3.47;2.10;;;10.40;99.90;;;;;;5082142;28;20243;-83
2023/03/10 06:15:26;;;;;;;3.10;2.10;;;10.30;99.90;;;;;;5082133;28;20196;-85
2023/03/10 06:17:51;;;;;;;2.33;1.90;;;10.20;99.90;;;;;;5082379;28;20673;-86
2023/03/10 06:20:17;;;;;;;2.20;2.00;;;10.20;99.90;;;;;;5080561;28;20214;-85
2023/03/10 06:22:43;;;;;;;3.97;1.73;;;10.10;99.90;;;;;;5081433;28;20888;-86
2023/03/10 06:25:09;;;;;;;2.93;1.77;;;10.00;99.90;;;;;;5080794;28;20180;-84
2023/03/10 06:27:35;;;;;;;3.07;1.80;;;10.10;99.90;;;;;;5080227;28;20175;-85
2023/03/10 06:30:02;;;;;;;2.03;1.73;;;10.00;99.90;;;;;;5080396;28;20255;-85
2023/03/10 06:32:27;;;;;;;1.87;1.60;;;10.10;99.90;;;;;;5062129;28;20238;-85
2023/03/10 06:34:53;;;;;;;2.97;2.00;;;10.00;99.90;;;;;;5079630;28;20207;-84
2023/03/10 06:37:18;;;;;;;2.80;1.80;;;10.00;99.90;;;;;;5079164;28;20205;-85
2023/03/10 06:39:44;;;;;;;2.50;1.57;;;9.90;99.90;;;;;;5081041;28;20543;-79
2023/03/10 06:42:10;;;;;;;1.70;1.60;;;9.90;99.90;;;;;;5080225;28;20698;-86
2023/03/10 06:44:35;;;;;;;1.80;1.70;;;9.90;99.90;;;;;;5059583;28;20192;-83
2023/03/10 06:47:03;;;;;;;3.33;1.80;;;9.90;99.90;;;;;;5061583;28;20222;-84
2023/03/10 06:49:31;;;;;;;3.10;1.70;;;10.00;99.90;;;;;;5060768;28;20257;-87
2023/03/10 06:51:57;;;;;;;1.63;1.40;;;10.10;99.90;;;;;;5059845;28;20631;-85
2023/03/10 06:54:22;;;;;;;1.60;1.50;;;10.10;99.90;;;;;;5059722;28;20214;-84
2023/03/10 06:56:49;;;;;;;1.70;1.60;;;10.20;99.90;;;;;;5059468;28;20176;-86
2023/03/10 06:59:14;;;;;;;1.87;1.50;;;10.20;99.90;;;;;;5059394;28;20192;-85
2023/03/10 07:01:41;;;;;;;1.60;1.50;;;10.30;99.90;;;;;;5060006;28;20835;-85
2023/03/10 07:04:07;;;;;;;1.60;1.50;;;10.40;99.90;;;;;;5059802;28;20207;-85
2023/03/10 07:06:33;;;;;;;2.93;1.50;;;10.50;99.90;;;;;;5061168;28;20596;-84
2023/03/10 07:08:59;;;;;;;1.87;1.57;;;10.60;99.90;;;;;;5061838;28;20195;-85
2023/03/10 07:11:25;;;;;;;1.23;1.23;;;10.70;99.70;;;;;;5091444;28;20223;-89
2023/03/10 07:13:51;;;;;;;2.00;1.60;;;10.70;99.90;;;;;;5095642;28;20204;-86
2023/03/10 07:16:17;;;;;;;1.50;1.40;;;10.60;99.90;;;;;;5094219;28;20151;-83
2023/03/10 07:18:43;;;;;;;2.40;1.83;;;10.50;99.90;;;;;;5087838;28;20191;-87
2023/03/10 07:21:11;;;;;;;2.67;1.73;;;10.40;99.90;;;;;;5079436;28;20215;-85
2023/03/10 07:23:36;;;;;;;4.50;1.83;;;10.10;99.90;;;;;;5079002;28;20321;-87
2023/03/10 07:26:04;;;;;;;1.80;1.70;;;9.90;99.90;;;;;;5077745;28;20210;-85
2023/03/10 07:28:30;;;;;;;1.70;1.60;;;9.80;99.90;;;;;;5078977;28;20175;-83
2023/03/10 07:30:56;;;;;;;2.80;1.67;;;9.70;99.90;;;;;;5079409;28;20219;-85
2023/03/10 07:33:22;;;;;;;4.10;1.90;;;9.60;99.90;;;;;;5061831;28;20755;-84
2023/03/10 07:35:48;;;;;;;2.00;1.70;;;9.60;99.90;;;;;;5081422;28;20211;-81
2023/03/10 07:38:13;;;;;;;1.57;1.47;;;9.60;99.90;;;;;;5082395;28;20187;-87
2023/03/10 07:40:40;;;;;;;2.47;1.60;;;9.40;99.90;;;;;;5074852;28;20223;-86
2023/03/10 07:43:05;;;;;;;5.97;1.70;;;9.40;99.90;;;;;;5042944;28;20212;-79
2023/03/10 07:45:32;;;;;;;5.97;2.03;;;9.20;99.90;;;;;;5063205;28;20187;-84
2023/03/10 07:47:58;;;;;;;4.67;2.03;;;9.10;99.90;;;;;;5061995;28;20196;-82
2023/03/10 07:50:24;;;;;;;2.70;1.90;;;9.20;99.90;;;;;;5059160;28;20200;-84
2023/03/10 07:52:50;;;;;;;3.30;1.90;;;9.10;99.90;;;;;;5059870;28;20322;-84
2023/03/10 07:55:16;;;;;;;3.03;1.90;;;8.90;99.90;;;;;;5058412;28;20269;-85
2023/03/10 07:57:42;;;;;;;3.67;2.10;;;8.90;99.90;;;;;;5058102;28;20172;-87
2023/03/10 08:00:09;;;;;;;5.73;2.80;;;8.80;99.90;;;;;;5058774;28;20196;-85
2023/03/10 08:02:35;;;;;;;5.20;2.77;;;8.70;99.90;;;;;;5059106;28;20168;-83
2023/03/10 08:05:01;;;;;;;6.20;2.70;;;8.70;99.90;;;;;;5061605;28;20253;-85
2023/03/10 08:07:26;;;;;;;5.43;2.23;;;8.80;99.90;;;;;;5061240;28;20184;-88
2023/03/10 08:09:53;;;;;;;6.30;2.60;;;8.80;99.90;;;;;;5071417;28;20230;-84
2023/03/10 08:12:20;;;;;;;6.83;2.73;;;8.90;99.90;;;;;;5080492;28;20255;-86
2023/03/10 08:14:46;;;;;;;8.30;2.73;;;8.80;99.90;;;;;;5080788;28;20195;-88
2023/03/10 08:17:12;;;;;;;8.47;2.63;;;8.80;99.90;;;;;;5079781;28;20183;-84
2023/03/10 08:19:38;;;;;;;6.73;3.10;;;8.80;99.90;;;;;;5079104;28;20175;-88
2023/03/10 08:22:04;;;;;;;6.17;2.70;;;8.90;99.90;;;;;;5079915;28;20599;-85
2023/03/10 08:24:30;;;;;;;7.73;2.67;;;8.90;99.90;;;;;;5080501;28;20470;-86
2023/03/10 08:26:55;;;;;;;4.93;2.53;;;8.90;99.90;;;;;;5062191;28;20272;-84
2023/03/10 08:29:21;;;;;;;5.37;2.77;;;9.00;99.90;;;;;;5079948;28;20206;-86
2023/03/10 08:31:47;;;;;;;4.67;2.60;;;8.90;99.90;;;;;;5080978;28;20271;-81
2023/03/10 08:34:14;;;;;;;6.83;2.80;;;8.90;99.90;;;;;;5068385;28;20219;-85
2023/03/10 08:36:40;;;;;;;4.87;2.53;;;8.90;99.90;;;;;;5064916;28;20239;-86
2023/03/10 08:39:06;;;;;;;6.90;2.60;;;8.90;99.90;;;;;;5080211;28;20251;-84
2023/03/10 08:41:36;;;;;;;6.33;2.40;;;8.90;99.90;;;;;;5080848;28;20737;-85
2023/03/10 08:44:03;;;;;;;3.97;2.17;;;8.90;99.90;;;;;;5079922;28;20879;-86
2023/03/10 08:46:30;;;;;;;3.43;2.10;;;8.90;99.90;;;;;;5080928;28;20241;-86
2023/03/10 08:48:57;;;;;;;3.30;1.97;;;9.00;99.90;;;;;;5080394;28;20234;-84
2023/03/10 08:51:24;;;;;;;4.63;2.23;;;8.90;99.90;;;;;;5080028;28;20215;-82
2023/03/10 08:53:50;;;;;;;3.33;2.20;;;8.90;99.90;;;;;;5080188;28;20180;-83
2023/03/10 08:56:18;;;;;;;4.57;2.30;;;8.80;99.90;;;;;;5078710;28;20180;-85
2023/03/10 08:58:43;;;;;;;6.27;2.33;;;8.80;99.90;;;;;;5084747;28;20178;-79
2023/03/10 09:01:10;;;;;;;5.20;2.40;;;8.90;99.90;;;;;;5088378;28;20196;-86
2023/03/10 09:03:38;;;;;;;3.83;2.10;;;8.90;99.90;;;;;;5089865;28;20176;-87
2023/03/10 09:06:04;;;;;;;6.33;2.20;;;8.80;99.90;;;;;;5094429;28;20179;-85
2023/03/10 09:08:30;;;;;;;3.23;2.20;;;8.80;99.90;;;;;;5096828;28;20203;-87
2023/03/10 09:10:56;;;;;;;4.40;2.30;;;8.90;99.90;;;;;;5096129;28;20227;-86
2023/03/10 09:13:22;;;;;;;4.27;2.10;;;8.90;99.90;;;;;;5091327;28;20180;-82
2023/03/10 09:15:49;;;;;;;5.80;2.53;;;8.90;99.90;;;;;;5082920;28;20210;-86
2023/03/10 09:18:16;;;;;;;5.10;2.50;;;9.00;99.90;;;;;;5064905;28;20194;-85
2023/03/10 09:20:43;;;;;;;6.20;2.83;;;8.90;99.90;;;;;;5082084;28;20191;-85
2023/03/10 09:23:10;;;;;;;7.57;2.80;;;8.90;99.90;;;;;;5082754;28;20168;-88
2023/03/10 09:25:39;;;;;;;4.33;2.60;;;9.00;99.90;;;;;;5083258;28;20175;-85
2023/03/10 09:28:06;;;;;;;3.57;2.40;;;9.00;99.90;;;;;;5077173;28;20207;-80
2023/03/10 09:30:36;;;;;;;6.43;2.73;;;9.10;99.90;;;;;;5077404;28;20204;-85
2023/03/10 09:33:05;;;;;;;5.47;3.10;;;9.10;99.90;;;;;;5084728;28;20194;-84
2023/03/10 09:35:31;;;;;;;8.13;3.07;;;9.10;99.90;;;;;;5066384;28;20258;-86
2023/03/10 09:37:57;;;;;;;4.70;2.50;;;9.20;99.90;;;;;;5065746;28;20179;-85
2023/03/10 09:40:23;;;;;;;5.53;2.63;;;9.20;99.90;;;;;;5083020;28;20272;-87
2023/03/10 09:43:01;;;;;;;7.37;2.43;;;9.30;99.90;;;;;;5081353;28;20171;-86
2023/03/10 09:45:44;;;;;;;5.43;2.73;;;9.20;99.90;;;;;;5081614;28;20186;-87
2023/03/10 09:48:24;;;;;;;6.17;2.60;;;9.30;99.90;;;;;;5080805;28;20336;-85
2023/03/10 09:50:53;;;;;;;3.47;2.37;;;9.30;99.90;;;;;;5080949;28;20191;-83
2023/03/10 09:53:42;;;;;;;5.33;2.30;;;9.30;99.90;;;;;;5083633;28;20172;-87
2023/03/10 09:56:15;;;;;;;4.83;2.07;;;9.30;99.90;;;;;;5083326;28;20168;-83
2023/03/10 09:58:45;;;;;;;4.23;2.10;;;9.30;99.90;;;;;;5083666;28;20190;-84
2023/03/10 10:01:18;;;;;;;5.50;2.27;;;9.30;99.90;;;;;;5084116;28;20227;-87
2023/03/10 10:04:08;;;;;;;5.87;2.60;;;9.40;99.90;;;;;;5065022;28;20251;-87
2023/03/10 10:06:37;;;;;;;3.73;1.87;;;9.30;99.90;;;;;;5082230;28;20243;-82
2023/03/10 10:09:21;;;;;;;3.80;2.40;;;9.30;99.90;;;;;;5081916;28;20557;-84
2023/03/10 10:11:47;;;;;;;2.97;1.83;;;9.30;99.90;;;;;;5062758;28;20214;-85
2023/03/10 10:14:13;;;;;;;4.67;2.10;;;9.40;99.90;;;;;;5043565;28;20237;-86
2023/03/10 10:16:41;;;;;;;3.80;1.87;;;9.40;99.90;;;;;;5044457;28;20177;-89
2023/03/10 10:19:24;;;;;;;3.20;2.10;;;9.40;99.90;;;;;;5062173;28;20173;-87
2023/03/10 10:22:17;;;;;;;4.30;2.60;;;9.40;99.90;;;;;;5073992;28;20326;-87
2023/03/10 10:25:01;;;;;;;2.87;2.10;;;9.50;99.90;;;;;;5082830;28;20168;-84
2023/03/10 10:27:30;;;;;;;5.23;2.50;;;9.50;99.90;;;;;;5082572;28;20464;-85
2023/03/10 10:29:57;;;;;;;2.13;1.93;;;9.40;99.90;;;;;;5083461;28;20215;-86
2023/03/10 10:32:22;;;;;;;5.33;2.27;;;9.50;99.90;;;;;;5084096;28;20184;-83
2023/03/10 10:34:48;;;;;;;4.30;2.30;;;9.50;99.90;;;;;;5081537;28;20201;-81
2023/03/10 10:37:28;;;;;;;5.57;2.53;;;9.60;99.90;;;;;;5081645;28;20176;-87
2023/03/10 10:39:56;;;;;;;3.30;2.27;;;9.50;99.90;;;;;;5081227;28;20195;-86
2023/03/10 10:42:24;;;;;;;5.87;2.50;;;9.40;99.90;;;;;;5081102;28;20172;-85
2023/03/10 10:45:06;;;;;;;6.07;2.43;;;9.40;99.90;;;;;;5062955;28;20183;-89
2023/03/10 10:47:45;;;;;;;5.73;2.33;;;9.50;99.90;;;;;;5080401;28;20156;-85
2023/03/10 10:50:19;;;;;;;5.10;2.37;;;9.60;99.90;;;;;;5063006;28;20195;-86
2023/03/10 10:52:48;;;;;;;3.60;2.23;;;9.60;99.90;;;;;;5082315;28;20566;-83
2023/03/10 10:55:33;;;;;;;3.00;2.07;;;9.50;99.90;;;;;;5083385;28;20201;-87
2023/03/10 10:58:01;;;;;;;7.07;2.67;;;9.60;99.90;;;;;;5081359;28;20164;-85
2023/03/10 11:00:31;;;;;;;7.97;2.50;;;9.60;99.90;;;;;;5082217;28;20565;-85
2023/03/10 11:02:58;;;;;;;4.13;2.20;;;9.70;99.90;;;;;;5082444;28;20191;-86
2023/03/10 11:05:31;;;;;;;5.53;2.50;;;9.70;99.90;;;;;;5082970;28;20184;-83
2023/03/10 11:08:16;;;;;;;3.87;2.50;;;9.80;99.90;;;;;;5080336;28;20160;-82
2023/03/10 11:10:44;;;;;;;5.27;2.13;;;9.90;99.90;;;;;;5080456;28;20290;-86
2023/03/10 11:13:37;;;;;;;4.40;2.20;;;9.80;99.90;;;;;;5080827;28;20272;-84
2023/03/10 11:16:12;;;;;;;2.63;2.00;;;9.80;99.90;;;;;;5079350;28;20223;-84
2023/03/10 11:18:57;;;;;;;4.07;2.50;;;9.70;99.90;;;;;;5080476;28;20175;-84
2023/03/10 11:21:27;;;;;;;4.80;2.40;;;9.70;99.90;;;;;;5081588;28;20223;-84
2023/03/10 11:24:02;;;;;;;4.50;2.17;;;9.60;99.90;;;;;;5082900;28;20199;-83
2023/03/10 11:26:43;;;;;;;6.30;2.30;;;9.60;99.90;;;;;;5070131;28;20191;-80
2023/03/10 11:29:47;;;;;;;2.73;2.27;;;9.70;99.90;;;;;;5076811;28;20174;-83
2023/03/10 11:32:41;;;;;;;6.13;2.77;;;9.60;99.90;;;;;;4979693;28;20266;-82
2023/03/10 11:35:44;;;;;;;5.67;2.67;;;9.70;99.90;;;;;;5079900;28;20554;-84
2023/03/10 11:38:15;;;;;;;4.77;2.33;;;9.60;99.90;;;;;;5077297;28;20207;-86
2023/03/10 11:40:50;;;;;;;5.13;2.40;;;9.60;99.90;;;;;;5081070;28;20188;-83
2023/03/10 11:43:21;;;;;;;4.13;2.73;;;9.60;99.90;;;;;;5079446;28;20167;-87
2023/03/10 11:45:51;;;;;;;5.10;2.40;;;9.60;99.90;;;;;;5079486;28;20207;-82
2023/03/10 11:48:41;;;;;;;4.07;2.20;;;9.70;99.90;;;;;;5079781;28;20172;-84
2023/03/10 11:51:25;;;;;;;4.57;2.33;;;9.70;99.90;;;;;;5065969;28;20203;-81
2023/03/10 11:53:54;;;;;;;4.97;2.20;;;9.70;99.90;;;;;;5083082;28;20167;-86
2023/03/10 11:56:22;;;;;;;2.93;2.30;;;9.60;99.90;;;;;;5063740;28;20180;-84
2023/03/10 11:59:14;;;;;;;3.87;2.20;;;9.60;99.90;;;;;;5082010;28;20195;-85
2023/03/10 12:01:55;;;;;;;4.97;2.20;;;9.70;99.90;;;;;;5074784;28;20271;-81
2023/03/10 12:04:39;;;;;;;4.63;2.23;;;9.50;99.90;;;;;;5092331;28;20318;-82
2023/03/10 12:07:11;;;;;;;6.23;2.13;;;9.60;99.90;;;;;;5088616;28;20164;-81
2023/03/10 12:09:41;;;;;;;2.67;2.00;;;9.80;99.90;;;;;;5074149;28;20187;-81
2023/03/10 12:12:19;;;;;;;4.07;1.87;;;9.70;99.90;;;;;;5059499;28;20180;-85
2023/03/10 12:14:45;;;;;;;4.83;2.30;;;9.60;99.90;;;;;;5057816;28;20192;-82
2023/03/10 12:17:14;;;;;;;3.93;1.90;;;9.60;99.90;;;;;;5058622;28;20184;-87
2023/03/10 12:20:16;;;;;;;3.00;1.90;;;9.60;99.90;;;;;;5076200;28;20262;-84
2023/03/10 12:22:59;;;;;;;1.47;1.40;;;9.60;99.90;;;;;;5054499;28;20233;-83
2023/03/10 12:25:27;;;;;;;3.03;1.43;;;9.60;99.90;;;;;;5079160;28;20228;-85
2023/03/10 12:28:15;;;;;;;1.63;1.40;;;9.50;99.90;;;;;;5079994;28;20210;-79
2023/03/10 12:30:51;;;;;;;1.83;1.57;;;9.40;99.90;;;;;;5080140;28;20230;-84
2023/03/10 12:33:29;;;;;;;1.67;1.43;;;9.40;99.90;;;;;;5079405;28;20218;-86
2023/03/10 12:36:01;;;;;;;1.47;1.30;;;9.30;99.90;;;;;;5076585;28;20257;-85
2023/03/10 12:38:28;;;;;;;2.33;1.60;;;9.40;99.90;;;;;;5078046;28;20523;-87
2023/03/10 12:40:55;;;;;;;1.90;1.37;;;9.30;99.90;;;;;;5077976;28;20291;-82
2023/03/10 12:43:42;;;;;;;1.43;1.33;;;9.30;99.90;;;;;;5082012;28;20172;-84
2023/03/10 12:46:11;;;;;;;1.33;1.30;;;9.10;99.90;;;;;;5082191;28;20187;-85
2023/03/10 12:48:46;;;;;;;1.40;1.30;;;9.10;99.90;;;;;;5083193;28;20176;-81
2023/03/10 12:51:17;;;;;;;1.53;1.43;;;9.00;99.90;;;;;;5084359;28;20203;-82
2023/03/10 12:53:55;;;;;;;1.50;1.40;;;9.00;99.90;;;;;;5084535;28;20172;-85
2023/03/10 12:56:32;;;;;;;1.50;1.40;;;9.00;99.90;;;;;;5084924;28;20183;-88
2023/03/10 12:59:24;;;;;;;1.50;1.40;;;9.10;99.90;;;;;;5081499;28;20198;-83
2023/03/10 13:01:52;;;;;;;1.17;1.10;;;9.00;99.90;;;;;;5061265;28;20212;-85
2023/03/10 13:04:21;;;;;;;1.63;1.37;;;8.90;99.90;;;;;;5074137;28;20184;-86